Time;durP1;ratioP1;P1;durP2;ratioP2;P2;SDS_P1;SDS_P2;PMS_P1;PMS_P2;Temp;Humidity;BMP_temperature;BMP_pressure;BME280_temperature;BME280_humidity;BME280_pressure;Samples;Min_cycle;Max_cycle;Signal;HPM_P1;HPM_P2
2023/12/06 00:00:55;;;;;;;48.50;23.30;;;;;;;-4.30;88.15;100548.91;5103447;28;20312;-62
2023/12/06 00:03:23;;;;;;;49.17;23.77;;;;;;;-4.30;88.40;100541.34;5115064;28;20219;-61
2023/12/06 00:05:52;;;;;;;46.70;20.93;;;;;;;-4.26;87.71;100548.28;5115494;28;20231;-63
2023/12/06 00:08:20;;;;;;;40.80;16.67;;;;;;;-4.29;87.78;100548.97;5117559;28;20203;-60
2023/12/06 00:10:48;;;;;;;52.70;23.80;;;;;;;-4.28;87.48;100555.72;5109815;28;20208;-64
2023/12/06 00:13:16;;;;;;;48.33;22.50;;;;;;;-4.38;87.60;100531.72;5116892;28;20211;-61
2023/12/06 00:15:44;;;;;;;39.07;20.60;;;;;;;-4.18;87.84;100557.13;5109142;28;20236;-62
2023/12/06 00:18:14;;;;;;;46.77;22.20;;;;;;;-4.16;87.52;100545.47;5114047;27;20270;-63
2023/12/06 00:20:42;;;;;;;38.17;19.37;;;;;;;-4.17;87.60;100558.84;5126946;27;20287;-61
2023/12/06 00:23:10;;;;;;;45.00;20.63;;;;;;;-4.17;87.22;100549.63;5128294;27;20222;-68
2023/12/06 00:25:38;;;;;;;43.80;20.50;;;;;;;-4.15;87.64;100553.13;5127203;27;20211;-66
2023/12/06 00:28:06;;;;;;;37.17;17.83;;;;;;;-4.19;87.38;100548.69;5115700;27;20257;-66
2023/12/06 00:30:34;;;;;;;51.27;23.23;;;;;;;-4.20;87.39;100558.66;5123879;27;20214;-66
2023/12/06 00:33:02;;;;;;;43.40;21.80;;;;;;;-4.18;87.84;100557.13;5112475;27;20238;-63
2023/12/06 00:35:32;;;;;;;48.50;23.27;;;;;;;-4.19;87.68;100548.69;5117120;27;20226;-64
2023/12/06 00:38:00;;;;;;;40.37;20.67;;;;;;;-4.20;88.23;100558.66;5115718;27;20261;-65
2023/12/06 00:40:28;;;;;;;44.50;21.40;;;;;;;-4.22;87.80;100551.03;5121116;27;20283;-66
2023/12/06 00:42:56;;;;;;;46.40;20.97;;;;;;;-4.19;88.21;100546.19;5127711;27;20218;-66
2023/12/06 00:45:24;;;;;;;48.90;23.17;;;;;;;-4.19;87.97;100556.25;5122308;27;20206;-67
2023/12/06 00:47:52;;;;;;;52.43;22.50;;;;;;;-4.17;88.16;100543.75;5115945;27;20214;-65
2023/12/06 00:50:20;;;;;;;48.30;23.73;;;;;;;-4.13;87.95;100556.56;5117435;27;20656;-65
2023/12/06 00:52:49;;;;;;;47.47;21.90;;;;;;;-4.10;88.36;100552.50;5104338;27;20208;-66
2023/12/06 00:55:17;;;;;;;50.07;21.93;;;;;;;-4.09;88.10;100557.59;5112512;27;20638;-68
2023/12/06 00:57:45;;;;;;;43.70;21.00;;;;;;;-4.11;88.47;100559.19;5119069;27;20626;-65
2023/12/06 01:00:14;;;;;;;52.57;23.53;;;;;;;-4.06;87.87;100561.94;5122475;27;20197;-66
2023/12/06 01:02:42;;;;;;;50.83;24.30;;;;;;;-4.03;88.13;100560.47;5116204;27;20226;-65
2023/12/06 01:05:10;;;;;;;52.80;22.90;;;;;;;-4.01;87.90;100561.44;5120115;27;20200;-67
2023/12/06 01:07:38;;;;;;;49.13;21.47;;;;;;;-4.01;87.92;100558.06;5116551;27;20697;-66
2023/12/06 01:10:09;;;;;;;39.83;20.30;;;;;;;-4.02;88.24;100557.16;5125822;27;20200;-66
2023/12/06 01:12:37;;;;;;;34.77;17.33;;;;;;;-4.02;88.16;100566.38;5109522;27;20204;-66
2023/12/06 01:15:06;;;;;;;41.70;20.80;;;;;;;-4.06;88.16;100561.94;5106425;27;20304;-67
2023/12/06 01:17:34;;;;;;;53.77;23.27;;;;;;;-4.04;88.27;100566.28;5118679;27;20238;-69
2023/12/06 01:20:02;;;;;;;54.43;22.60;;;;;;;-4.00;88.63;100570.72;5122815;27;20200;-66
2023/12/06 01:22:31;;;;;;;34.87;17.53;;;;;;;-4.00;88.37;100568.19;5116928;27;20223;-66
2023/12/06 01:24:59;;;;;;;46.83;21.87;;;;;;;-3.95;88.35;100568.44;5116240;27;20552;-71
2023/12/06 01:27:28;;;;;;;54.30;24.77;;;;;;;-3.93;88.12;100564.38;5113481;27;20581;-66
2023/12/06 01:29:57;;;;;;;48.47;23.40;;;;;;;-3.92;88.07;100569.47;5122699;27;20207;-67
2023/12/06 01:32:38;;;;;;;40.20;19.53;;;;;;;-3.92;87.89;100566.97;5113385;27;20286;-66
2023/12/06 01:35:07;;;;;;;51.20;23.20;;;;;;;-3.95;88.60;100565.91;5121084;27;20632;-66
2023/12/06 01:37:35;;;;;;;35.53;17.67;;;;;;;-3.96;88.06;100560.03;5114960;27;20553;-66
2023/12/06 01:40:04;;;;;;;40.33;20.77;;;;;;;-3.93;88.53;100565.22;5111454;27;20200;-64
2023/12/06 01:42:34;;;;;;;46.93;18.53;;;;;;;-3.89;88.13;100552.03;5117867;27;20518;-66
2023/12/06 01:45:02;;;;;;;49.73;23.00;;;;;;;-3.86;88.54;100563.06;5120029;27;20227;-67
2023/12/06 01:47:31;;;;;;;46.50;23.27;;;;;;;-3.83;88.52;100560.69;5114838;27;20296;-70
2023/12/06 01:50:03;;;;;;;46.33;22.00;;;;;;;-3.82;88.39;100562.44;5116984;27;20577;-68
2023/12/06 01:52:33;;;;;;;47.70;22.77;;;;;;;-3.77;88.58;100566.91;5111978;27;20291;-66
2023/12/06 01:55:02;;;;;;;44.23;19.80;;;;;;;-3.76;87.88;100567.78;5103015;27;20271;-66
2023/12/06 01:57:31;;;;;;;35.73;16.73;;;;;;;-3.76;88.29;100562.75;5111779;27;20249;-68
2023/12/06 02:00:00;;;;;;;39.10;17.13;;;;;;;-3.74;87.86;100567.09;5116440;27;20240;-65
2023/12/06 02:02:29;;;;;;;39.57;18.80;;;;;;;-3.81;88.04;100564.16;5107864;27;20196;-64
2023/12/06 02:04:57;;;;;;;51.50;23.33;;;;;;;-3.79;88.03;100573.53;5115111;27;20246;-69
2023/12/06 02:07:27;;;;;;;53.07;25.03;;;;;;;-3.80;88.46;100565.88;5102884;27;20231;-66
2023/12/06 02:09:55;;;;;;;50.03;23.20;;;;;;;-3.74;88.51;100573.78;5109496;27;20200;-66
2023/12/06 02:12:23;;;;;;;47.43;21.40;;;;;;;-3.73;88.26;100571.34;5112847;28;20252;-68
2023/12/06 02:14:51;;;;;;;48.50;22.00;;;;;;;-3.68;88.22;100575.00;5109041;27;20202;-68
2023/12/06 02:17:20;;;;;;;46.50;21.93;;;;;;;-3.66;88.25;100570.88;5121968;27;20281;-66
2023/12/06 02:19:48;;;;;;;45.33;22.90;;;;;;;-3.64;87.78;100576.03;5120462;27;20226;-66
2023/12/06 02:22:17;;;;;;;48.83;22.63;;;;;;;-3.69;87.97;100574.88;5113435;27;20239;-68
2023/12/06 02:24:48;;;;;;;36.93;17.03;;;;;;;-3.68;87.70;100575.00;5113298;27;20224;-67
2023/12/06 02:27:17;;;;;;;51.10;24.10;;;;;;;-3.62;87.91;100579.47;5113094;27;20200;-66
2023/12/06 02:29:45;;;;;;;48.87;23.10;;;;;;;-3.56;87.93;100574.78;5117888;27;20221;-66
2023/12/06 02:32:13;;;;;;;53.50;24.30;;;;;;;-3.50;87.98;100572.59;5105518;27;20200;-66
2023/12/06 02:34:42;;;;;;;54.60;25.77;;;;;;;-3.44;87.45;100565.34;5107709;27;20230;-65
2023/12/06 02:37:14;;;;;;;63.60;27.33;;;;;;;-3.41;87.65;100559.59;5119772;27;20204;-66
2023/12/06 02:39:45;;;;;;;43.80;21.57;;;;;;;-3.40;87.23;100559.66;5115858;27;20211;-66
2023/12/06 02:42:13;;;;;;;43.73;22.73;;;;;;;-3.39;87.30;100550.44;5114985;27;20235;-64
2023/12/06 02:44:42;;;;;;;39.20;19.60;;;;;;;-3.46;87.10;100554.34;5115306;27;20244;-60
2023/12/06 02:47:10;;;;;;;38.03;19.03;;;;;;;-3.56;87.11;100559.66;5117902;27;20214;-61
2023/12/06 02:49:38;;;;;;;40.67;17.33;;;;;;;-3.61;87.39;100563.56;5119489;27;20569;-61
2023/12/06 02:52:06;;;;;;;48.27;23.23;;;;;;;-3.62;87.61;100556.81;5102893;28;20197;-63
2023/12/06 02:54:34;;;;;;;45.20;21.60;;;;;;;-3.58;88.21;100568.78;5116133;27;20701;-65
2023/12/06 02:57:02;;;;;;;45.60;21.70;;;;;;;-3.51;88.33;100568.31;5114176;27;20276;-65
2023/12/06 02:59:30;;;;;;;44.33;23.50;;;;;;;-3.43;87.52;100574.63;5118136;27;20246;-60
2023/12/06 03:01:59;;;;;;;50.30;24.73;;;;;;;-3.40;87.62;100569.75;5104526;27;20200;-63
2023/12/06 03:04:27;;;;;;;43.13;22.07;;;;;;;-3.43;87.18;100578.78;5113153;27;20254;-61
2023/12/06 03:06:55;;;;;;;48.20;22.17;;;;;;;-3.43;87.27;100579.66;5111073;28;20212;-61
2023/12/06 03:09:23;;;;;;;42.10;21.57;;;;;;;-3.36;86.94;100580.00;5123116;27;20227;-62
2023/12/06 03:11:51;;;;;;;49.27;22.43;;;;;;;-3.32;87.05;100587.78;5110403;27;20677;-62
2023/12/06 03:14:19;;;;;;;41.47;20.27;;;;;;;-3.36;86.49;100582.50;5106792;27;20200;-61
2023/12/06 03:16:47;;;;;;;43.80;20.10;;;;;;;-3.37;86.46;100576.59;5104903;27;20234;-61
2023/12/06 03:19:16;;;;;;;41.73;19.47;;;;;;;-3.44;86.21;100577.94;5110738;27;20199;-67
2023/12/06 03:21:44;;;;;;;42.90;19.77;;;;;;;-3.50;87.02;100586.81;5104457;27;20249;-63
2023/12/06 03:24:12;;;;;;;41.77;21.27;;;;;;;-3.52;86.67;100589.25;5111724;27;20693;-66
2023/12/06 03:26:40;;;;;;;43.93;21.60;;;;;;;-3.55;87.22;100586.56;5114022;27;20223;-62
2023/12/06 03:29:08;;;;;;;44.90;20.27;;;;;;;-3.51;86.99;100580.91;5118374;27;20196;-61
2023/12/06 03:31:36;;;;;;;28.77;13.63;;;;;;;-3.57;86.50;100582.22;5102249;27;20278;-62
2023/12/06 03:34:04;;;;;;;36.37;19.67;;;;;;;-3.65;86.72;100579.31;5108982;28;20204;-63
2023/12/06 03:36:33;;;;;;;41.53;19.70;;;;;;;-3.73;87.20;100578.88;5112798;28;20249;-64
2023/12/06 03:39:01;;;;;;;44.87;21.00;;;;;;;-3.68;87.50;100581.69;5106874;28;20223;-61
2023/12/06 03:41:29;;;;;;;44.30;22.10;;;;;;;-3.64;87.30;100588.63;5105327;28;20197;-63
2023/12/06 03:43:57;;;;;;;42.40;20.87;;;;;;;-3.63;87.26;100594.50;5105546;28;20196;-63
2023/12/06 03:46:30;;;;;;;38.37;19.70;;;;;;;-3.71;87.00;100586.53;5121119;27;20245;-60
2023/12/06 03:48:58;;;;;;;40.17;19.17;;;;;;;-3.73;87.54;100585.59;5111233;28;20199;-62
2023/12/06 03:51:26;;;;;;;41.33;20.50;;;;;;;-3.76;88.17;100581.22;5117399;28;20191;-64
2023/12/06 03:53:56;;;;;;;39.20;16.77;;;;;;;-3.77;87.83;100574.47;5101044;28;20199;-65
2023/12/06 03:56:24;;;;;;;39.77;19.27;;;;;;;-3.77;87.90;100582.03;5118298;28;20650;-67
2023/12/06 03:58:54;;;;;;;34.83;18.07;;;;;;;-3.76;87.86;100580.38;5114838;28;20207;-65
2023/12/06 04:01:23;;;;;;;39.87;18.83;;;;;;;-3.84;88.02;100579.09;5115468;27;20655;-67
2023/12/06 04:03:51;;;;;;;36.17;18.30;;;;;;;-3.88;87.87;100573.88;5103434;28;20298;-65
2023/12/06 04:06:19;;;;;;;32.23;15.27;;;;;;;-3.93;87.68;100580.34;5106107;28;20673;-66
2023/12/06 04:08:47;;;;;;;40.63;20.47;;;;;;;-3.89;88.44;100574.69;5106341;28;20237;-66
2023/12/06 04:11:17;;;;;;;39.30;17.60;;;;;;;-3.84;87.87;100584.13;5119393;28;20549;-67
2023/12/06 04:13:45;;;;;;;35.70;19.90;;;;;;;-3.82;87.95;100585.97;5108689;28;20711;-66
2023/12/06 04:16:13;;;;;;;43.73;19.63;;;;;;;-3.82;88.00;100582.59;5105310;28;20253;-65
2023/12/06 04:18:41;;;;;;;29.63;15.67;;;;;;;-3.81;87.34;100574.25;5106641;28;20200;-68
2023/12/06 04:21:09;;;;;;;33.83;17.03;;;;;;;-3.81;87.59;100581.78;5110696;28;20196;-67
2023/12/06 04:23:36;;;;;;;35.17;17.57;;;;;;;-3.78;87.66;100576.94;5112349;28;20196;-68
2023/12/06 04:26:04;;;;;;;40.50;18.37;;;;;;;-3.77;86.88;100578.66;5114533;28;20234;-66
2023/12/06 04:28:34;;;;;;;27.93;14.83;;;;;;;-3.76;86.69;100582.88;5116509;28;20204;-68
2023/12/06 04:31:02;;;;;;;31.33;14.90;;;;;;;-3.82;86.75;100583.44;5118712;28;20200;-66
2023/12/06 04:33:30;;;;;;;28.10;13.60;;;;;;;-3.86;86.47;100580.69;5106684;28;20232;-64
2023/12/06 04:35:58;;;;;;;34.67;18.63;;;;;;;-3.91;87.45;100583.78;5110023;28;20610;-64
2023/12/06 04:38:26;;;;;;;36.40;17.90;;;;;;;-3.86;87.54;100584.06;5113456;28;20234;-65
2023/12/06 04:40:54;;;;;;;32.87;17.83;;;;;;;-3.84;87.67;100572.41;5111363;28;20200;-60
2023/12/06 04:43:22;;;;;;;35.07;16.83;;;;;;;-3.81;87.30;100575.09;5115045;28;20204;-60
2023/12/06 04:45:51;;;;;;;35.33;17.77;;;;;;;-3.87;86.88;100579.78;5105930;28;20218;-63
2023/12/06 04:48:19;;;;;;;29.57;15.33;;;;;;;-3.86;86.92;100579.03;5108653;28;20200;-62
2023/12/06 04:50:47;;;;;;;35.83;16.83;;;;;;;-3.90;87.69;100585.53;5109707;28;20574;-62
2023/12/06 04:53:15;;;;;;;26.43;13.30;;;;;;;-3.88;86.64;100583.09;5103662;27;20203;-62
2023/12/06 04:55:43;;;;;;;24.30;13.90;;;;;;;-3.91;87.06;100591.34;5111311;28;20681;-61
2023/12/06 04:58:11;;;;;;;27.93;14.77;;;;;;;-3.92;86.78;100582.06;5106581;28;20195;-61
2023/12/06 05:00:39;;;;;;;34.77;17.13;;;;;;;-3.93;86.76;100585.38;5104876;28;20730;-59
2023/12/06 05:03:09;;;;;;;27.60;13.10;;;;;;;-3.89;87.33;100579.72;5111094;27;20216;-61
2023/12/06 05:05:37;;;;;;;28.73;14.30;;;;;;;-3.94;86.88;100578.59;5110898;27;20212;-61
2023/12/06 05:08:05;;;;;;;33.63;16.73;;;;;;;-3.96;86.79;100579.31;5118992;27;20610;-62
2023/12/06 05:10:33;;;;;;;24.13;13.80;;;;;;;-4.00;86.96;100569.84;5115552;27;20196;-61
2023/12/06 05:13:01;;;;;;;26.20;13.50;;;;;;;-3.99;87.15;100567.41;5110420;27;20203;-60
2023/12/06 05:15:29;;;;;;;30.07;16.07;;;;;;;-3.99;87.69;100567.41;5113602;27;20659;-60
2023/12/06 05:17:57;;;;;;;28.80;13.67;;;;;;;-3.98;87.16;100561.56;5104963;27;20229;-62
2023/12/06 05:20:26;;;;;;;26.30;12.47;;;;;;;-3.96;87.50;100565.06;5104694;27;20208;-70
2023/12/06 05:22:55;;;;;;;32.53;16.17;;;;;;;-3.96;87.07;100560.03;5114936;27;20200;-63
2023/12/06 05:25:23;;;;;;;24.70;11.93;;;;;;;-3.94;87.48;100563.50;5114176;28;20284;-60
2023/12/06 05:27:52;;;;;;;23.70;13.53;;;;;;;-3.98;87.59;100561.56;5121270;27;20722;-62
2023/12/06 05:30:20;;;;;;;31.70;16.13;;;;;;;-3.98;87.44;100559.06;5117831;27;20203;-61
2023/12/06 05:32:48;;;;;;;29.23;15.27;;;;;;;-3.97;87.69;100562.47;5107005;27;20208;-63
2023/12/06 05:35:16;;;;;;;28.57;12.90;;;;;;;-3.99;87.37;100562.38;5110130;27;20199;-60
2023/12/06 05:37:45;;;;;;;31.77;16.53;;;;;;;-3.98;87.56;100560.72;5109160;27;20208;-63
2023/12/06 05:40:13;;;;;;;32.47;16.47;;;;;;;-3.96;88.00;100560.03;5117779;27;20287;-59
2023/12/06 05:42:41;;;;;;;22.67;13.17;;;;;;;-3.93;87.83;100565.22;5115700;27;20199;-65
2023/12/06 05:45:10;;;;;;;33.67;15.30;;;;;;;-3.89;87.73;100572.16;5116560;27;20203;-66
2023/12/06 05:47:38;;;;;;;31.23;16.40;;;;;;;-3.86;87.99;100579.03;5116253;27;20208;-59
2023/12/06 05:50:10;;;;;;;32.20;16.67;;;;;;;-3.81;87.60;100569.19;5116520;27;20200;-61
2023/12/06 05:52:38;;;;;;;26.33;13.77;;;;;;;-3.79;87.07;100572.66;5126850;27;20208;-66
2023/12/06 05:55:08;;;;;;;28.30;15.07;;;;;;;-3.76;87.25;100571.16;5115299;27;20572;-65
2023/12/06 05:57:36;;;;;;;29.37;13.30;;;;;;;-3.82;86.96;100567.47;5094916;27;20201;-59
2023/12/06 06:00:08;;;;;;;33.53;16.57;;;;;;;-3.80;87.61;100556.69;5121831;27;20207;-61
2023/12/06 06:02:36;;;;;;;29.83;16.07;;;;;;;-3.78;87.29;100559.31;5094977;28;20228;-61
2023/12/06 06:05:04;;;;;;;37.10;16.13;;;;;;;-3.74;87.28;100571.28;5107614;27;20646;-60
2023/12/06 06:07:32;;;;;;;34.17;17.57;;;;;;;-3.70;87.65;100574.03;5100854;27;20586;-61
2023/12/06 06:10:00;;;;;;;25.50;13.33;;;;;;;-3.66;86.80;100591.03;5124346;27;20204;-65
2023/12/06 06:12:33;;;;;;;34.23;18.33;;;;;;;-3.61;86.71;100581.19;5105410;27;20204;-66
2023/12/06 06:15:01;;;;;;;34.63;17.77;;;;;;;-3.58;87.13;100586.41;5105189;27;20204;-64
2023/12/06 06:17:29;;;;;;;31.20;16.70;;;;;;;-3.50;86.89;100590.22;5105230;27;20266;-66
2023/12/06 06:19:56;;;;;;;35.10;17.53;;;;;;;-3.45;86.56;100588.81;5107430;27;20235;-65
2023/12/06 06:22:24;;;;;;;24.57;11.87;;;;;;;-3.42;85.97;100595.66;5105490;27;20337;-66
2023/12/06 06:24:53;;;;;;;33.53;17.13;;;;;;;-3.40;86.73;100591.56;5099897;27;20214;-64
2023/12/06 06:27:21;;;;;;;35.97;17.63;;;;;;;-3.38;86.35;100590.00;5107560;27;20713;-63
2023/12/06 06:29:51;;;;;;;32.43;17.37;;;;;;;-3.29;86.19;100594.66;5103689;27;20306;-66
2023/12/06 06:32:19;;;;;;;30.07;16.23;;;;;;;-3.22;86.43;100594.19;5097036;27;20203;-63
2023/12/06 06:34:47;;;;;;;34.17;17.90;;;;;;;-3.18;85.91;100581.81;5107178;27;20633;-62
2023/12/06 06:37:15;;;;;;;32.30;16.77;;;;;;;-3.13;85.55;100582.03;5122373;27;20662;-64
2023/12/06 06:39:43;;;;;;;34.53;17.53;;;;;;;-3.13;85.45;100581.19;5113557;27;20203;-62
2023/12/06 06:42:11;;;;;;;32.03;16.90;;;;;;;-3.10;85.79;100579.69;5099823;28;20636;-65
2023/12/06 06:44:40;;;;;;;27.60;14.73;;;;;;;-3.12;84.72;100591.38;5102973;27;20195;-63
2023/12/06 06:47:26;;;;;;;30.93;16.33;;;;;;;-3.13;85.23;100584.56;5106304;27;20679;-64
2023/12/06 06:49:55;;;;;;;27.13;14.73;;;;;;;-3.11;85.54;100592.22;5121359;27;20654;-62
2023/12/06 06:52:23;;;;;;;31.57;17.07;;;;;;;-3.08;85.47;100607.50;5106337;27;20233;-64
2023/12/06 06:54:52;;;;;;;28.30;15.30;;;;;;;-3.09;84.76;100603.22;5118627;27;20654;-62
2023/12/06 06:57:20;;;;;;;29.87;15.73;;;;;;;-3.08;84.97;100598.28;5105624;27;20220;-62
2023/12/06 06:59:48;;;;;;;32.43;16.77;;;;;;;-3.05;84.98;100600.97;5111183;27;20209;-62
2023/12/06 07:02:16;;;;;;;35.63;16.87;;;;;;;-3.05;84.67;100603.50;5118765;27;20650;-64
2023/12/06 07:04:46;;;;;;;32.40;16.70;;;;;;;-3.01;84.89;100605.38;5121092;27;20229;-64
2023/12/06 07:07:13;;;;;;;29.33;15.27;;;;;;;-2.96;84.45;100608.13;5105855;27;20678;-66
2023/12/06 07:09:42;;;;;;;33.50;18.03;;;;;;;-2.99;84.82;100600.41;5119308;27;20680;-68
2023/12/06 07:12:10;;;;;;;30.77;16.87;;;;;;;-2.97;84.86;100607.28;5117106;27;20445;-68
2023/12/06 07:14:38;;;;;;;27.20;14.67;;;;;;;-2.97;84.20;100606.41;5122308;27;20203;-67
2023/12/06 07:17:07;;;;;;;29.13;15.13;;;;;;;-2.94;84.58;100606.56;5105233;27;20747;-66
2023/12/06 07:19:35;;;;;;;33.13;17.57;;;;;;;-2.89;84.42;100605.13;5122340;27;20293;-71
2023/12/06 07:22:06;;;;;;;30.57;16.73;;;;;;;-2.87;84.00;100606.09;5094631;28;20239;-66
2023/12/06 07:24:34;;;;;;;31.77;15.63;;;;;;;-2.93;84.76;100603.25;5111089;27;20207;-63
2023/12/06 07:27:03;;;;;;;33.10;18.00;;;;;;;-2.88;84.49;100606.00;5109944;27;20251;-62
2023/12/06 07:29:31;;;;;;;29.43;16.70;;;;;;;-2.80;84.42;100610.66;5110709;27;20200;-65
2023/12/06 07:31:59;;;;;;;33.23;16.40;;;;;;;-2.77;83.99;100607.41;5111759;28;20294;-65
2023/12/06 07:34:27;;;;;;;30.93;17.10;;;;;;;-2.76;84.18;100601.56;5101279;28;20206;-65
2023/12/06 07:37:10;;;;;;;25.00;14.70;;;;;;;-2.81;83.69;100605.53;5110042;27;20210;-63
2023/12/06 07:39:38;;;;;;;28.67;16.53;;;;;;;-2.77;83.85;100610.78;5109410;28;20676;-61
2023/12/06 07:42:07;;;;;;;35.63;17.50;;;;;;;-2.74;83.59;100615.16;5107349;28;20200;-63
2023/12/06 07:44:35;;;;;;;39.50;18.43;;;;;;;-2.73;83.64;100610.16;5106011;28;20278;-62
2023/12/06 07:47:03;;;;;;;30.10;16.77;;;;;;;-2.71;83.02;100610.25;5110790;28;20220;-62
2023/12/06 07:49:31;;;;;;;32.17;16.53;;;;;;;-2.70;83.00;100625.47;5115036;28;20261;-64
2023/12/06 07:52:00;;;;;;;33.23;15.20;;;;;;;-2.76;82.71;100617.59;5114137;28;20204;-62
2023/12/06 07:54:29;;;;;;;28.30;15.53;;;;;;;-2.75;82.87;100619.31;5111930;28;20199;-62
2023/12/06 07:56:57;;;;;;;29.23;17.00;;;;;;;-2.76;83.13;100624.28;5112006;28;20326;-64
2023/12/06 07:59:25;;;;;;;33.67;16.10;;;;;;;-2.75;83.02;100619.31;5116249;28;20729;-61
2023/12/06 08:01:54;;;;;;;32.00;16.73;;;;;;;-2.71;82.81;100617.81;5109357;28;20608;-64
2023/12/06 08:04:24;;;;;;;32.50;15.90;;;;;;;-2.76;82.68;100620.13;5100858;28;20777;-63
2023/12/06 08:06:53;;;;;;;31.17;15.57;;;;;;;-2.78;83.28;100623.34;5102876;28;20298;-64
2023/12/06 08:09:21;;;;;;;33.40;16.73;;;;;;;-2.74;83.27;100615.16;5112042;28;20290;-59
2023/12/06 08:11:50;;;;;;;33.93;17.47;;;;;;;-2.63;83.13;100618.22;5111317;27;20208;-60
2023/12/06 08:14:18;;;;;;;29.87;17.77;;;;;;;-2.53;82.91;100625.47;5107114;28;20254;-60
2023/12/06 08:16:47;;;;;;;33.30;17.33;;;;;;;-2.50;82.74;100621.44;5120101;28;20356;-62
2023/12/06 08:19:15;;;;;;;34.13;18.10;;;;;;;-2.49;82.48;100623.16;5107414;28;20536;-60
2023/12/06 08:21:43;;;;;;;36.70;19.37;;;;;;;-2.56;82.22;100630.34;5111782;28;20216;-61
2023/12/06 08:24:11;;;;;;;32.50;18.53;;;;;;;-2.65;82.47;100633.28;5110871;28;20200;-67
2023/12/06 08:26:39;;;;;;;31.70;16.73;;;;;;;-2.61;82.99;100627.59;5106709;28;20196;-66
2023/12/06 08:29:08;;;;;;;27.00;15.00;;;;;;;-2.59;82.33;100636.09;5103269;28;20346;-62
2023/12/06 08:31:37;;;;;;;33.40;18.63;;;;;;;-2.65;82.55;100635.81;5111223;28;20280;-65
2023/12/06 08:34:05;;;;;;;30.70;17.30;;;;;;;-2.72;82.15;100638.81;5099935;28;20197;-63
2023/12/06 08:36:33;;;;;;;33.13;17.70;;;;;;;-2.74;82.68;100635.31;5115409;27;20236;-63
2023/12/06 08:39:01;;;;;;;29.40;15.50;;;;;;;-2.74;82.52;100638.69;5113830;27;20228;-62
2023/12/06 08:41:29;;;;;;;37.10;18.23;;;;;;;-2.86;82.58;100634.69;5126560;27;20221;-62
2023/12/06 08:43:57;;;;;;;37.47;18.00;;;;;;;-2.98;82.58;100635.81;5125018;27;20204;-62
2023/12/06 08:46:26;;;;;;;29.70;14.57;;;;;;;-3.11;83.39;100637.59;5113100;27;20259;-63
2023/12/06 08:48:55;;;;;;;29.23;15.97;;;;;;;-3.14;83.63;100658.44;5111272;27;20771;-61
2023/12/06 08:51:23;;;;;;;29.77;15.17;;;;;;;-3.17;83.70;100648.19;5114350;27;20770;-63
2023/12/06 08:53:50;;;;;;;26.57;14.33;;;;;;;-3.23;84.14;100656.31;5114080;28;20196;-62
2023/12/06 08:56:18;;;;;;;36.93;18.23;;;;;;;-3.19;83.89;100649.78;5109023;28;20246;-63
2023/12/06 08:58:46;;;;;;;43.40;20.87;;;;;;;-3.12;84.43;100644.28;5114759;28;20235;-63
2023/12/06 09:01:14;;;;;;;35.83;19.07;;;;;;;-3.11;84.06;100648.53;5109479;27;20662;-62
2023/12/06 09:03:44;;;;;;;30.20;15.47;;;;;;;-3.12;82.88;100646.81;5109554;27;20208;-64
2023/12/06 09:06:12;;;;;;;29.43;13.73;;;;;;;-3.21;83.80;100649.69;5114482;27;20204;-62
2023/12/06 09:08:40;;;;;;;29.97;13.50;;;;;;;-3.29;83.91;100650.06;5114222;27;20207;-62
2023/12/06 09:11:08;;;;;;;35.47;18.57;;;;;;;-3.35;84.94;100647.22;5113769;28;20296;-62
2023/12/06 09:13:37;;;;;;;28.00;15.20;;;;;;;-3.36;84.67;100653.06;5109733;27;20630;-63
2023/12/06 09:16:06;;;;;;;44.03;20.60;;;;;;;-3.42;85.08;100646.03;5111261;27;20659;-64
2023/12/06 09:18:34;;;;;;;38.43;19.03;;;;;;;-3.36;85.30;100655.56;5114724;27;20212;-66
2023/12/06 09:21:05;;;;;;;25.87;13.70;;;;;;;-3.38;84.54;100658.03;5108219;27;20214;-64
2023/12/06 09:23:33;;;;;;;35.90;16.63;;;;;;;-3.43;84.60;100652.72;5100157;27;20268;-65
2023/12/06 09:26:01;;;;;;;37.80;16.43;;;;;;;-3.41;85.28;100658.72;5106840;27;20678;-65
2023/12/06 09:28:29;;;;;;;35.90;18.40;;;;;;;-3.41;84.96;100653.69;5115141;27;20207;-65
2023/12/06 09:30:57;;;;;;;40.33;16.77;;;;;;;-3.44;84.26;100648.47;5107468;27;20231;-65
2023/12/06 09:33:25;;;;;;;25.93;14.07;;;;;;;-3.53;85.31;100647.97;5109948;27;20272;-64
2023/12/06 09:35:53;;;;;;;37.93;19.93;;;;;;;-3.54;85.47;100645.34;5109292;27;20297;-62
2023/12/06 09:38:22;;;;;;;35.93;17.43;;;;;;;-3.51;85.17;100653.94;5116602;27;20529;-63
2023/12/06 09:40:50;;;;;;;29.83;17.07;;;;;;;-3.60;85.33;100658.50;5111393;27;20203;-62
2023/12/06 09:43:19;;;;;;;33.20;16.67;;;;;;;-3.67;85.35;100657.28;5119241;27;20204;-65
2023/12/06 09:45:47;;;;;;;33.77;17.47;;;;;;;-3.68;85.11;100652.19;5114873;27;20573;-64
2023/12/06 09:48:16;;;;;;;34.53;15.80;;;;;;;-3.70;84.99;100657.13;5104050;27;20797;-64
2023/12/06 09:50:44;;;;;;;34.70;16.73;;;;;;;-3.63;85.28;100658.34;5099029;28;20258;-64
2023/12/06 09:53:12;;;;;;;33.87;18.30;;;;;;;-3.55;85.14;100662.13;5110545;27;20199;-65
2023/12/06 09:55:41;;;;;;;37.60;19.67;;;;;;;-3.56;85.05;100655.38;5103453;27;20293;-65
2023/12/06 09:58:09;;;;;;;39.43;19.40;;;;;;;-3.50;84.81;100655.72;5095461;27;20197;-67
2023/12/06 10:00:37;;;;;;;34.00;16.50;;;;;;;-3.56;84.21;100642.78;5121630;27;20199;-65
2023/12/06 10:03:05;;;;;;;26.00;14.73;;;;;;;-3.54;84.17;100652.91;5125245;27;20407;-66
2023/12/06 10:05:34;;;;;;;31.23;15.63;;;;;;;-3.61;84.26;100644.16;5110627;27;20200;-66
2023/12/06 10:08:02;;;;;;;35.50;16.40;;;;;;;-3.70;84.50;100654.59;5111695;28;20223;-64
2023/12/06 10:10:30;;;;;;;40.53;17.50;;;;;;;-3.68;84.40;100652.19;5108208;27;20208;-64
2023/12/06 10:13:00;;;;;;;28.90;14.97;;;;;;;-3.70;84.36;100647.03;5108257;28;20665;-65
2023/12/06 10:15:37;;;;;;;29.77;12.97;;;;;;;-3.77;84.66;100651.66;5108959;28;20205;-67
2023/12/06 10:18:06;;;;;;;32.27;16.13;;;;;;;-3.80;84.68;100652.34;5109644;27;20594;-65
2023/12/06 10:20:34;;;;;;;38.13;18.87;;;;;;;-3.70;85.43;100656.25;5111146;27;20593;-67
2023/12/06 10:23:02;;;;;;;29.27;14.80;;;;;;;-3.60;84.42;100655.13;5103083;27;20223;-64
2023/12/06 10:25:38;;;;;;;32.20;17.03;;;;;;;-3.53;84.27;100647.13;5110238;27;20200;-63
2023/12/06 10:28:11;;;;;;;30.43;16.57;;;;;;;-3.48;83.43;100641.53;5113172;27;20227;-63
2023/12/06 10:30:39;;;;;;;37.43;18.37;;;;;;;-3.46;83.62;100645.00;5103690;27;20200;-64
2023/12/06 10:33:11;;;;;;;34.47;17.47;;;;;;;-3.35;83.16;100642.19;5106349;28;20239;-63
2023/12/06 10:35:39;;;;;;;32.83;15.67;;;;;;;-3.37;82.96;100633.69;5099556;27;20207;-65
2023/12/06 10:38:08;;;;;;;32.13;15.47;;;;;;;-3.45;82.87;100625.72;5108789;27;20200;-63
2023/12/06 10:40:36;;;;;;;35.80;16.53;;;;;;;-3.35;83.38;100632.09;5112288;27;20294;-66
2023/12/06 10:43:07;;;;;;;30.73;16.13;;;;;;;-3.31;82.48;100627.34;5102450;27;20208;-65
2023/12/06 10:45:37;;;;;;;32.43;18.00;;;;;;;-3.26;83.05;100622.53;5106363;27;20207;-63
2023/12/06 10:48:07;;;;;;;34.23;17.50;;;;;;;-3.24;81.45;100628.50;5125816;27;20242;-61
2023/12/06 10:50:35;;;;;;;31.50;16.67;;;;;;;-3.18;82.58;100622.13;5107779;27;20204;-61
2023/12/06 10:53:05;;;;;;;33.57;16.93;;;;;;;-3.09;82.01;100626.81;5104493;27;20539;-61
2023/12/06 10:55:35;;;;;;;31.07;15.37;;;;;;;-3.02;81.84;100621.31;5115421;27;20263;-60
2023/12/06 10:58:06;;;;;;;33.73;16.93;;;;;;;-3.00;81.61;100619.72;5114756;27;20196;-59
2023/12/06 11:00:34;;;;;;;30.03;16.07;;;;;;;-3.02;81.56;100622.94;5113339;27;20655;-62
2023/12/06 11:03:04;;;;;;;33.87;15.63;;;;;;;-3.11;81.72;100618.28;5110588;27;20204;-59
2023/12/06 11:05:38;;;;;;;26.27;14.30;;;;;;;-3.18;81.87;100623.78;5104909;27;20196;-62
2023/12/06 11:08:30;;;;;;;35.30;17.97;;;;;;;-3.25;82.49;100621.72;5112396;27;20196;-62
2023/12/06 11:11:12;;;;;;;34.33;17.07;;;;;;;-3.18;82.78;100631.34;5110731;27;20252;-62
2023/12/06 11:13:53;;;;;;;34.73;16.53;;;;;;;-3.19;83.00;100637.19;5107399;27;20195;-60
2023/12/06 11:16:40;;;;;;;27.67;12.23;;;;;;;-3.23;82.98;100617.66;5106050;27;20720;-60